Mississippi Enterprise — WDE2542 — position and weather

sailwx.info

Track history (hours):
 
Tides and Currents Weather Stations Pressure Air Temp Water Temp Dewpoint Dewpoint Depression Visibility Wind Speed Wind Dir Waves Ship Positions

Mississippi Enterprise

Owner: U.S. United Ocean Services, LLC, Tampa, FL. More information available from US FCC via Universal Licensing System and Coast Guard Vessel Documentation Center.

Last reported at 2017-Jun-27 23:54 UTC. Time now 2017-Jun-28 00:19 UTC.
Position N 27°48' W 082°25'.

Length 187 m; draft 8 m.

Type: Cargo ship. MMSI: 369813000.

Date/timePositionNaut miles runAvg speedWind from/ knotsBaromVisibWave heightAir tempDewpointWater temp
2017-Jun-27 23:54N 27°48' W 082°25'1 3.3
2017-Jun-27 23:30N 27°49' W 082°26'4 8.1
2017-Jun-27 23:00N 27°47' W 082°30'  
2017-Jun-21 13:22N 25°37' W 079°59'512.9
2017-Jun-21 12:57N 25°43' W 079°59'613.1
2017-Jun-21 12:30N 25°48' W 079°58'713.4
2017-Jun-21 12:01N 25°55' W 079°58'713.3
2017-Jun-21 11:30N 26°02' W 079°57'713.1
2017-Jun-21 11:00N 26°08' W 079°57'713.1
2017-Jun-21 10:30N 26°15' W 079°57'712.6
2017-Jun-21 09:59N 26°21' W 079°56'  
Track history (hours):
 
Tides and Currents Weather Stations Pressure Air Temp Water Temp Dewpoint Dewpoint Depression Visibility Wind Speed Wind Dir Waves Ship Positions

Mississippi Enterprise

Owner: U.S. United Ocean Services, LLC, Tampa, FL. More information available from US FCC via Universal Licensing System and Coast Guard Vessel Documentation Center.

Last reported at 2017-Jun-27 23:54 UTC. Time now 2017-Jun-28 00:19 UTC.
Position N 27°48' W 082°25'.

Length 187 m; draft 8 m.

Type: Cargo ship. MMSI: 369813000.

Date/timePositionNaut miles runAvg speedWind from/ knotsBaromVisibWave heightAir tempDewpointWater temp
2017-Jun-27 23:54N 27°48' W 082°25'1 3.3
2017-Jun-27 23:30N 27°49' W 082°26'4 8.1
2017-Jun-27 23:00N 27°47' W 082°30'  
2017-Jun-21 13:22N 25°37' W 079°59'512.9
2017-Jun-21 12:57N 25°43' W 079°59'613.1
2017-Jun-21 12:30N 25°48' W 079°58'713.4
2017-Jun-21 12:01N 25°55' W 079°58'713.3
2017-Jun-21 11:30N 26°02' W 079°57'713.1
2017-Jun-21 11:00N 26°08' W 079°57'713.1
2017-Jun-21 10:30N 26°15' W 079°57'712.6
2017-Jun-21 09:59N 26°21' W 079°56'  

Dump ship's entire track history